sensor_id;sensor_type;location;lat;lon;timestamp;pressure;altitude;pressure_sealevel;temperature;humidity
49040;BME280;36811;49.732;13.402;2022-11-20T00:01:17;97387.34;;;-1.42;89.00
49040;BME280;36811;49.732;13.402;2022-11-20T00:03:45;97384.13;;;-1.44;89.96
49040;BME280;36811;49.732;13.402;2022-11-20T00:06:16;97385.16;;;-1.38;89.96
49040;BME280;36811;49.732;13.402;2022-11-20T00:08:43;97383.25;;;-1.51;89.11
49040;BME280;36811;49.732;13.402;2022-11-20T00:11:11;97382.94;;;-1.41;89.93
49040;BME280;36811;49.732;13.402;2022-11-20T00:13:38;97390.19;;;-1.37;89.41
49040;BME280;36811;49.732;13.402;2022-11-20T00:16:07;97387.97;;;-1.40;89.07
49040;BME280;36811;49.732;13.402;2022-11-20T00:18:34;97384.72;;;-1.42;90.03
49040;BME280;36811;49.732;13.402;2022-11-20T00:21:05;97381.66;;;-1.52;89.68
49040;BME280;36811;49.732;13.402;2022-11-20T00:23:32;97375.44;;;-1.51;89.58
49040;BME280;36811;49.732;13.402;2022-11-20T00:26:02;97385.88;;;-1.51;88.95
49040;BME280;36811;49.732;13.402;2022-11-20T00:28:28;97385.44;;;-1.54;89.80
49040;BME280;36811;49.732;13.402;2022-11-20T00:31:00;97387.97;;;-1.40;89.47
49040;BME280;36811;49.732;13.402;2022-11-20T00:33:28;97389.00;;;-1.34;89.15
49040;BME280;36811;49.732;13.402;2022-11-20T00:36:02;97386.78;;;-1.37;88.92
49040;BME280;36811;49.732;13.402;2022-11-20T00:38:28;97394.91;;;-1.47;88.44
49040;BME280;36811;49.732;13.402;2022-11-20T00:41:01;97397.50;;;-1.53;88.54
49040;BME280;36811;49.732;13.402;2022-11-20T00:43:27;97396.75;;;-1.68;88.28
49040;BME280;36811;49.732;13.402;2022-11-20T00:46:08;97390.69;;;-1.75;88.50
49040;BME280;36811;49.732;13.402;2022-11-20T00:48:35;97392.97;;;-1.66;89.30
49040;BME280;36811;49.732;13.402;2022-11-20T00:51:01;97380.69;;;-1.44;89.22
49040;BME280;36811;49.732;13.402;2022-11-20T00:53:27;97373.41;;;-1.55;88.87
49040;BME280;36811;49.732;13.402;2022-11-20T00:55:58;97369.97;;;-1.35;89.59
49040;BME280;36811;49.732;13.402;2022-11-20T00:58:32;97382.69;;;-1.18;89.29
49040;BME280;36811;49.732;13.402;2022-11-20T01:01:05;97375.50;;;-1.16;89.09
49040;BME280;36811;49.732;13.402;2022-11-20T01:03:33;97384.53;;;-1.12;88.51
49040;BME280;36811;49.732;13.402;2022-11-20T01:06:04;97382.69;;;-1.18;88.48
49040;BME280;36811;49.732;13.402;2022-11-20T01:08:32;97391.31;;;-1.18;88.38
49040;BME280;36811;49.732;13.402;2022-11-20T01:11:03;97404.72;;;-1.27;87.44
49040;BME280;36811;49.732;13.402;2022-11-20T01:13:30;97388.31;;;-1.21;88.81
49040;BME280;36811;49.732;13.402;2022-11-20T01:16:14;97401.59;;;-1.16;88.62
49040;BME280;36811;49.732;13.402;2022-11-20T01:18:42;97400.56;;;-1.15;87.88
49040;BME280;36811;49.732;13.402;2022-11-20T01:21:11;97399.94;;;-1.24;88.52
49040;BME280;36811;49.732;13.402;2022-11-20T01:23:40;97382.13;;;-1.42;88.56
49040;BME280;36811;49.732;13.402;2022-11-20T01:26:09;97390.97;;;-1.43;88.45
49040;BME280;36811;49.732;13.402;2022-11-20T01:28:35;97380.78;;;-1.31;88.94
49040;BME280;36811;49.732;13.402;2022-11-20T01:31:02;97395.91;;;-1.26;89.27
49040;BME280;36811;49.732;13.402;2022-11-20T01:33:36;97395.72;;;-1.18;89.21
49040;BME280;36811;49.732;13.402;2022-11-20T01:36:04;97391.63;;;-1.06;89.51
49040;BME280;36811;49.732;13.402;2022-11-20T01:38:30;97389.22;;;-1.01;89.04
49040;BME280;36811;49.732;13.402;2022-11-20T01:40:56;97385.22;;;-0.97;89.14
49040;BME280;36811;49.732;13.402;2022-11-20T01:43:23;97384.09;;;-1.16;88.64
49040;BME280;36811;49.732;13.402;2022-11-20T01:48:28;97389.28;;;-1.22;89.53
49040;BME280;36811;49.732;13.402;2022-11-20T01:50:57;97383.09;;;-1.21;88.91
49040;BME280;36811;49.732;13.402;2022-11-20T01:53:27;97375.53;;;-1.38;88.17
49040;BME280;36811;49.732;13.402;2022-11-20T01:55:55;97385.97;;;-1.38;88.80
49040;BME280;36811;49.732;13.402;2022-11-20T01:58:32;97379.22;;;-1.25;88.24
49040;BME280;36811;49.732;13.402;2022-11-20T02:00:59;97379.00;;;-1.31;89.55
49040;BME280;36811;49.732;13.402;2022-11-20T02:03:26;97373.25;;;-1.19;89.13
49040;BME280;36811;49.732;13.402;2022-11-20T02:06:01;97372.22;;;-1.25;88.67
49040;BME280;36811;49.732;13.402;2022-11-20T02:08:29;97373.44;;;-1.49;88.20
49040;BME280;36811;49.732;13.402;2022-11-20T02:10:55;97374.88;;;-1.46;89.18
49040;BME280;36811;49.732;13.402;2022-11-20T02:13:21;97369.28;;;-1.43;88.78
49040;BME280;36811;49.732;13.402;2022-11-20T02:16:10;97372.78;;;-1.30;88.80
49040;BME280;36811;49.732;13.402;2022-11-20T02:18:38;97371.75;;;-1.35;88.66
49040;BME280;36811;49.732;13.402;2022-11-20T02:21:13;97370.47;;;-1.46;87.61
49040;BME280;36811;49.732;13.402;2022-11-20T02:24:01;97375.31;;;-1.43;89.39
49040;BME280;36811;49.732;13.402;2022-11-20T02:26:31;97376.63;;;-1.25;88.89
49040;BME280;36811;49.732;13.402;2022-11-20T02:28:58;97377.78;;;-1.35;88.15
49040;BME280;36811;49.732;13.402;2022-11-20T02:31:26;97377.06;;;-1.22;89.02
49040;BME280;36811;49.732;13.402;2022-11-20T02:33:56;97374.69;;;-1.17;88.35
49040;BME280;36811;49.732;13.402;2022-11-20T02:36:22;97366.63;;;-1.22;88.43
49040;BME280;36811;49.732;13.402;2022-11-20T02:38:49;97372.59;;;-1.28;88.72
49040;BME280;36811;49.732;13.402;2022-11-20T02:41:15;97376.59;;;-1.32;88.47
49040;BME280;36811;49.732;13.402;2022-11-20T02:43:41;97374.94;;;-1.40;88.34
49040;BME280;36811;49.732;13.402;2022-11-20T02:46:07;97373.44;;;-1.49;89.70
49040;BME280;36811;49.732;13.402;2022-11-20T02:48:33;97376.16;;;-1.36;89.80
49040;BME280;36811;49.732;13.402;2022-11-20T02:50:59;97378.28;;;-1.18;89.35
49040;BME280;36811;49.732;13.402;2022-11-20T02:53:25;97370.09;;;-1.08;89.29
49040;BME280;36811;49.732;13.402;2022-11-20T02:55:50;97372.09;;;-1.10;88.96
49040;BME280;36811;49.732;13.402;2022-11-20T02:58:16;97369.09;;;-1.14;89.54
49040;BME280;36811;49.732;13.402;2022-11-20T03:00:42;97374.91;;;-1.12;89.56
49040;BME280;36811;49.732;13.402;2022-11-20T03:03:07;97374.44;;;-1.22;89.33
49040;BME280;36811;49.732;13.402;2022-11-20T03:05:33;97373.28;;;-1.13;89.96
49040;BME280;36811;49.732;13.402;2022-11-20T03:07:58;97376.13;;;-1.08;89.60
49040;BME280;36811;49.732;13.402;2022-11-20T03:10:24;97366.53;;;-1.01;89.57
49040;BME280;36811;49.732;13.402;2022-11-20T03:12:54;97363.31;;;-1.03;89.12
49040;BME280;36811;49.732;13.402;2022-11-20T03:15:23;97365.31;;;-1.05;89.41
49040;BME280;36811;49.732;13.402;2022-11-20T03:17:53;97368.13;;;-1.06;89.63
49040;BME280;36811;49.732;13.402;2022-11-20T03:20:20;97371.94;;;-1.09;89.66
49040;BME280;36811;49.732;13.402;2022-11-20T03:22:45;97365.09;;;-1.10;89.86
49040;BME280;36811;49.732;13.402;2022-11-20T03:25:11;97361.06;;;-1.12;89.66
49040;BME280;36811;49.732;13.402;2022-11-20T03:27:36;97369.09;;;-1.14;90.38
49040;BME280;36811;49.732;13.402;2022-11-20T03:30:03;97367.91;;;-1.11;90.60
49040;BME280;36811;49.732;13.402;2022-11-20T03:32:29;97368.88;;;-1.12;90.40
49040;BME280;36811;49.732;13.402;2022-11-20T03:34:54;97373.53;;;-1.08;90.34
49040;BME280;36811;49.732;13.402;2022-11-20T03:37:20;97358.69;;;-1.07;90.13
49040;BME280;36811;49.732;13.402;2022-11-20T03:39:46;97357.47;;;-1.05;90.72
49040;BME280;36811;49.732;13.402;2022-11-20T03:42:11;97360.47;;;-1.08;90.27
49040;BME280;36811;49.732;13.402;2022-11-20T03:44:55;97356.91;;;-1.00;90.36
49040;BME280;36811;49.732;13.402;2022-11-20T03:47:21;97350.91;;;-0.94;90.36
49040;BME280;36811;49.732;13.402;2022-11-20T03:49:46;97336.34;;;-1.16;90.36
49040;BME280;36811;49.732;13.402;2022-11-20T03:52:12;97333.31;;;-1.20;90.70
49040;BME280;36811;49.732;13.402;2022-11-20T03:54:37;97328.69;;;-1.24;90.88
49040;BME280;36811;49.732;13.402;2022-11-20T03:57:03;97324.50;;;-1.19;91.31
49040;BME280;36811;49.732;13.402;2022-11-20T03:59:29;97309.53;;;-1.38;92.11
49040;BME280;36811;49.732;13.402;2022-11-20T04:01:54;97308.03;;;-1.54;93.35
49040;BME280;36811;49.732;13.402;2022-11-20T04:04:20;97339.25;;;-1.33;93.78
49040;BME280;36811;49.732;13.402;2022-11-20T04:06:45;97345.19;;;-1.11;92.95
49040;BME280;36811;49.732;13.402;2022-11-20T04:09:11;97333.03;;;-0.97;91.95
49040;BME280;36811;49.732;13.402;2022-11-20T04:11:39;97340.72;;;-1.23;91.45
49040;BME280;36811;49.732;13.402;2022-11-20T04:14:11;97331.59;;;-1.06;92.32
49040;BME280;36811;49.732;13.402;2022-11-20T04:16:37;97335.88;;;-0.92;91.82
49040;BME280;36811;49.732;13.402;2022-11-20T04:19:06;97333.09;;;-0.84;90.97
49040;BME280;36811;49.732;13.402;2022-11-20T04:21:32;97338.63;;;-1.00;90.24
49040;BME280;36811;49.732;13.402;2022-11-20T04:23:58;97337.50;;;-0.91;90.78
49040;BME280;36811;49.732;13.402;2022-11-20T04:26:26;97339.59;;;-0.67;90.74
49040;BME280;36811;49.732;13.402;2022-11-20T04:28:53;97345.19;;;-0.70;89.37
49040;BME280;36811;49.732;13.402;2022-11-20T04:31:25;97350.41;;;-0.70;89.74
49040;BME280;36811;49.732;13.402;2022-11-20T04:33:51;97348.41;;;-0.68;89.73
49040;BME280;36811;49.732;13.402;2022-11-20T04:36:22;97340.41;;;-0.67;90.16
49040;BME280;36811;49.732;13.402;2022-11-20T04:38:56;97330.56;;;-0.58;89.61
49040;BME280;36811;49.732;13.402;2022-11-20T04:41:24;97334.97;;;-0.65;89.85
49040;BME280;36811;49.732;13.402;2022-11-20T04:43:52;97335.56;;;-0.63;90.13
49040;BME280;36811;49.732;13.402;2022-11-20T04:46:20;97336.00;;;-0.59;90.91
49040;BME280;36811;49.732;13.402;2022-11-20T04:48:46;97329.78;;;-0.45;90.64
49040;BME280;36811;49.732;13.402;2022-11-20T04:51:12;97323.38;;;-0.43;89.82
49040;BME280;36811;49.732;13.402;2022-11-20T04:53:38;97327.19;;;-0.52;88.45
49040;BME280;36811;49.732;13.402;2022-11-20T04:56:07;97338.25;;;-0.43;89.36
49040;BME280;36811;49.732;13.402;2022-11-20T04:58:33;97345.09;;;-0.42;89.11
49040;BME280;36811;49.732;13.402;2022-11-20T05:01:06;97356.94;;;-0.40;89.29
49040;BME280;36811;49.732;13.402;2022-11-20T05:03:33;97349.28;;;-0.48;88.96
49040;BME280;36811;49.732;13.402;2022-11-20T05:06:03;97346.28;;;-0.45;89.79
49040;BME280;36811;49.732;13.402;2022-11-20T05:08:31;97348.47;;;-0.55;89.94
49040;BME280;36811;49.732;13.402;2022-11-20T05:11:11;97340.84;;;-0.56;90.80
49040;BME280;36811;49.732;13.402;2022-11-20T05:13:37;97335.19;;;-0.60;90.26
49040;BME280;36811;49.732;13.402;2022-11-20T05:16:11;97334.38;;;-0.60;90.80
49040;BME280;36811;49.732;13.402;2022-11-20T05:18:38;97331.78;;;-0.54;91.30
49040;BME280;36811;49.732;13.402;2022-11-20T05:21:05;97329.56;;;-0.50;91.61
49040;BME280;36811;49.732;13.402;2022-11-20T05:23:32;97318.16;;;-0.43;91.68
49040;BME280;36811;49.732;13.402;2022-11-20T05:25:58;97310.22;;;-0.76;90.82
49040;BME280;36811;49.732;13.402;2022-11-20T05:28:25;97314.59;;;-0.89;91.66
49040;BME280;36811;49.732;13.402;2022-11-20T05:30:51;97314.16;;;-0.93;91.86
49040;BME280;36811;49.732;13.402;2022-11-20T05:33:17;97325.81;;;-0.95;92.24
49040;BME280;36811;49.732;13.402;2022-11-20T05:35:43;97320.81;;;-0.90;93.31
49040;BME280;36811;49.732;13.402;2022-11-20T05:38:09;97326.13;;;-0.64;93.11
49040;BME280;36811;49.732;13.402;2022-11-20T05:40:35;97324.75;;;-0.60;92.55
49040;BME280;36811;49.732;13.402;2022-11-20T05:43:01;97322.72;;;-0.58;92.41
49040;BME280;36811;49.732;13.402;2022-11-20T05:45:26;97311.09;;;-0.55;91.80
49040;BME280;36811;49.732;13.402;2022-11-20T05:47:52;97320.28;;;-0.73;92.09
49040;BME280;36811;49.732;13.402;2022-11-20T05:50:18;97317.09;;;-0.61;93.29
49040;BME280;36811;49.732;13.402;2022-11-20T05:52:44;97315.53;;;-0.43;93.44
49040;BME280;36811;49.732;13.402;2022-11-20T05:55:09;97310.72;;;-0.33;92.33
49040;BME280;36811;49.732;13.402;2022-11-20T05:57:35;97320.78;;;-0.30;91.89
49040;BME280;36811;49.732;13.402;2022-11-20T06:00:02;97321.19;;;-0.33;92.17
49040;BME280;36811;49.732;13.402;2022-11-20T06:02:28;97315.38;;;-0.22;91.75
49040;BME280;36811;49.732;13.402;2022-11-20T06:04:54;97308.94;;;-0.39;90.89
49040;BME280;36811;49.732;13.402;2022-11-20T06:07:19;97310.91;;;-0.47;91.67
49040;BME280;36811;49.732;13.402;2022-11-20T06:09:45;97307.91;;;-0.44;92.48
49040;BME280;36811;49.732;13.402;2022-11-20T06:12:10;97307.13;;;-0.32;92.64
49040;BME280;36811;49.732;13.402;2022-11-20T06:14:36;97317.00;;;-0.21;92.25
49040;BME280;36811;49.732;13.402;2022-11-20T06:17:01;97312.78;;;-0.22;91.81
49040;BME280;36811;49.732;13.402;2022-11-20T06:19:27;97319.19;;;-0.24;92.04
49040;BME280;36811;49.732;13.402;2022-11-20T06:21:53;97313.78;;;-0.16;92.86
49040;BME280;36811;49.732;13.402;2022-11-20T06:24:18;97317.00;;;-0.21;92.09
49040;BME280;36811;49.732;13.402;2022-11-20T06:26:44;97317.59;;;-0.32;91.79
49040;BME280;36811;49.732;13.402;2022-11-20T06:29:10;97320.41;;;-0.27;92.65
49040;BME280;36811;49.732;13.402;2022-11-20T06:31:36;97333.88;;;-0.10;92.56
49040;BME280;36811;49.732;13.402;2022-11-20T06:34:04;97333.09;;;-0.11;92.13
49040;BME280;36811;49.732;13.402;2022-11-20T06:36:32;97327.66;;;-0.03;92.82
49040;BME280;36811;49.732;13.402;2022-11-20T06:38:57;97312.78;;;-0.02;91.89
49040;BME280;36811;49.732;13.402;2022-11-20T06:41:23;97316.19;;;-0.15;91.45
49040;BME280;36811;49.732;13.402;2022-11-20T06:43:49;97309.59;;;-0.11;91.85
49040;BME280;36811;49.732;13.402;2022-11-20T06:46:15;97309.59;;;-0.11;92.36
49040;BME280;36811;49.732;13.402;2022-11-20T06:48:45;97311.56;;;-0.13;91.89
49040;BME280;36811;49.732;13.402;2022-11-20T06:51:12;97308.38;;;-0.08;92.56
49040;BME280;36811;49.732;13.402;2022-11-20T06:53:38;97310.97;;;-0.02;92.43
49040;BME280;36811;49.732;13.402;2022-11-20T06:56:05;97310.38;;;0.03;92.78
49040;BME280;36811;49.732;13.402;2022-11-20T06:58:33;97305.38;;;0.15;92.19
49040;BME280;36811;49.732;13.402;2022-11-20T07:01:19;97315.63;;;0.16;91.55
49040;BME280;36811;49.732;13.402;2022-11-20T07:03:44;97319.66;;;0.32;91.64
49040;BME280;36811;49.732;13.402;2022-11-20T07:06:10;97303.53;;;0.28;90.89
49040;BME280;36811;49.732;13.402;2022-11-20T07:08:36;97306.38;;;0.20;90.77
49040;BME280;36811;49.732;13.402;2022-11-20T07:11:04;97301.94;;;0.21;91.09
49040;BME280;36811;49.732;13.402;2022-11-20T07:13:32;97314.81;;;0.35;91.33
49040;BME280;36811;49.732;13.402;2022-11-20T07:16:03;97313.19;;;0.47;90.91
49040;BME280;36811;49.732;13.402;2022-11-20T07:18:29;97338.13;;;0.63;90.89
49040;BME280;36811;49.732;13.402;2022-11-20T07:20:55;97316.00;;;0.66;89.59
49040;BME280;36811;49.732;13.402;2022-11-20T07:23:21;97323.84;;;0.66;89.86
49040;BME280;36811;49.732;13.402;2022-11-20T07:25:47;97319.38;;;0.79;89.58
49040;BME280;36811;49.732;13.402;2022-11-20T07:28:12;97312.94;;;0.75;88.69
49040;BME280;36811;49.732;13.402;2022-11-20T07:30:39;97314.16;;;0.73;88.90
49040;BME280;36811;49.732;13.402;2022-11-20T07:33:04;97307.94;;;0.60;88.11
49040;BME280;36811;49.732;13.402;2022-11-20T07:35:30;97303.72;;;0.46;88.56
49040;BME280;36811;49.732;13.402;2022-11-20T07:37:56;97311.19;;;0.43;89.45
49040;BME280;36811;49.732;13.402;2022-11-20T07:40:21;97304.91;;;0.70;90.13
49040;BME280;36811;49.732;13.402;2022-11-20T07:42:51;97316.13;;;0.84;89.35
49040;BME280;36811;49.732;13.402;2022-11-20T07:45:18;97323.56;;;1.00;89.22
49040;BME280;36811;49.732;13.402;2022-11-20T07:47:44;97294.72;;;1.06;88.37
49040;BME280;36811;49.732;13.402;2022-11-20T07:50:10;97297.34;;;1.06;88.28
49040;BME280;36811;49.732;13.402;2022-11-20T07:52:36;97297.47;;;1.24;88.46
49040;BME280;36811;49.732;13.402;2022-11-20T07:55:01;97281.78;;;1.18;87.82
49040;BME280;36811;49.732;13.402;2022-11-20T07:57:27;97279.97;;;1.18;87.62
49040;BME280;36811;49.732;13.402;2022-11-20T07:59:53;97280.97;;;1.17;87.07
49040;BME280;36811;49.732;13.402;2022-11-20T08:02:18;97281.56;;;1.26;86.66
49040;BME280;36811;49.732;13.402;2022-11-20T08:04:44;97288.69;;;1.50;87.72
49040;BME280;36811;49.732;13.402;2022-11-20T08:07:09;97301.13;;;1.61;86.56
49040;BME280;36811;49.732;13.402;2022-11-20T08:09:35;97298.28;;;1.63;86.48
49040;BME280;36811;49.732;13.402;2022-11-20T08:12:00;97306.38;;;1.61;85.78
49040;BME280;36811;49.732;13.402;2022-11-20T08:14:44;97304.22;;;1.45;85.93
49040;BME280;36811;49.732;13.402;2022-11-20T08:17:10;97296.06;;;1.28;86.00
49040;BME280;36811;49.732;13.402;2022-11-20T08:19:35;97294.97;;;1.43;86.06
49040;BME280;36811;49.732;13.402;2022-11-20T08:22:01;97290.50;;;1.50;86.40
49040;BME280;36811;49.732;13.402;2022-11-20T08:24:26;97293.44;;;1.28;85.44
49040;BME280;36811;49.732;13.402;2022-11-20T08:26:52;97285.00;;;1.58;86.19
49040;BME280;36811;49.732;13.402;2022-11-20T08:29:18;97268.63;;;1.69;85.48
49040;BME280;36811;49.732;13.402;2022-11-20T08:31:44;97267.75;;;1.75;85.82
49040;BME280;36811;49.732;13.402;2022-11-20T08:34:10;97276.50;;;1.93;85.22
49040;BME280;36811;49.732;13.402;2022-11-20T08:36:36;97276.75;;;2.10;83.31
49040;BME280;36811;49.732;13.402;2022-11-20T08:39:03;97275.84;;;2.23;83.97
49040;BME280;36811;49.732;13.402;2022-11-20T08:41:29;97275.06;;;2.22;83.87
49040;BME280;36811;49.732;13.402;2022-11-20T08:44:00;97274.31;;;2.40;83.08
49040;BME280;36811;49.732;13.402;2022-11-20T08:46:38;97267.28;;;2.34;82.68
49040;BME280;36811;49.732;13.402;2022-11-20T08:49:06;97270.56;;;2.29;82.60
49040;BME280;36811;49.732;13.402;2022-11-20T08:51:32;97274.53;;;2.14;82.70
49040;BME280;36811;49.732;13.402;2022-11-20T08:53:58;97274.53;;;1.89;83.19
49040;BME280;36811;49.732;13.402;2022-11-20T08:56:24;97264.97;;;1.70;82.38
49040;BME280;36811;49.732;13.402;2022-11-20T08:58:50;97267.16;;;1.73;82.80
49040;BME280;36811;49.732;13.402;2022-11-20T09:01:18;97279.28;;;1.74;83.49
49040;BME280;36811;49.732;13.402;2022-11-20T09:03:44;97278.75;;;1.59;84.72
49040;BME280;36811;49.732;13.402;2022-11-20T09:06:10;97278.03;;;1.76;85.95
49040;BME280;36811;49.732;13.402;2022-11-20T09:08:35;97271.56;;;1.79;84.51
49040;BME280;36811;49.732;13.402;2022-11-20T09:11:02;97272.50;;;1.91;84.65
49040;BME280;36811;49.732;13.402;2022-11-20T09:13:29;97265.44;;;2.16;84.82
49040;BME280;36811;49.732;13.402;2022-11-20T09:16:00;97252.19;;;2.29;82.92
49040;BME280;36811;49.732;13.402;2022-11-20T09:18:27;97256.28;;;2.43;84.07
49040;BME280;36811;49.732;13.402;2022-11-20T09:20:58;97272.47;;;2.40;82.34
49040;BME280;36811;49.732;13.402;2022-11-20T09:23:25;97268.75;;;2.30;82.62
49040;BME280;36811;49.732;13.402;2022-11-20T09:25:51;97274.94;;;2.35;83.88
49040;BME280;36811;49.732;13.402;2022-11-20T09:28:18;97279.50;;;2.46;83.03
49040;BME280;36811;49.732;13.402;2022-11-20T09:30:44;97272.28;;;2.42;82.78
49040;BME280;36811;49.732;13.402;2022-11-20T09:33:10;97280.78;;;2.37;82.75
49040;BME280;36811;49.732;13.402;2022-11-20T09:35:36;97278.63;;;2.28;83.00
49040;BME280;36811;49.732;13.402;2022-11-20T09:38:06;97282.66;;;2.30;83.41
49040;BME280;36811;49.732;13.402;2022-11-20T09:40:32;97284.38;;;2.18;82.96
49040;BME280;36811;49.732;13.402;2022-11-20T09:48:36;97264.59;;;2.22;83.56
49040;BME280;36811;49.732;13.402;2022-11-20T09:54:31;97267.53;;;2.32;82.81
49040;BME280;36811;49.732;13.402;2022-11-20T09:57:03;97275.47;;;2.44;83.67
49040;BME280;36811;49.732;13.402;2022-11-20T09:59:57;97276.25;;;2.26;82.78
49040;BME280;36811;49.732;13.402;2022-11-20T10:02:30;97274.03;;;2.23;83.49
49040;BME280;36811;49.732;13.402;2022-11-20T10:05:09;97272.66;;;2.21;84.06
49040;BME280;36811;49.732;13.402;2022-11-20T10:07:52;97258.41;;;2.35;83.58
49040;BME280;36811;49.732;13.402;2022-11-20T10:10:44;97248.28;;;2.56;83.14
49040;BME280;36811;49.732;13.402;2022-11-20T10:16:08;97247.34;;;3.65;82.04
49040;BME280;36811;49.732;13.402;2022-11-20T10:21:54;97252.97;;;3.68;80.56
49040;BME280;36811;49.732;13.402;2022-11-20T10:29:23;97253.22;;;3.78;79.71
49040;BME280;36811;49.732;13.402;2022-11-20T10:32:31;97251.94;;;3.69;80.53
49040;BME280;36811;49.732;13.402;2022-11-20T10:34:57;97234.19;;;3.53;80.69
49040;BME280;36811;49.732;13.402;2022-11-20T10:37:26;97237.06;;;3.63;80.45
49040;BME280;36811;49.732;13.402;2022-11-20T10:42:48;97240.72;;;3.62;81.49
49040;BME280;36811;49.732;13.402;2022-11-20T10:48:07;97236.09;;;3.46;82.05
49040;BME280;36811;49.732;13.402;2022-11-20T10:50:40;97226.84;;;3.44;81.13
49040;BME280;36811;49.732;13.402;2022-11-20T10:55:58;97234.84;;;3.49;81.29
49040;BME280;36811;49.732;13.402;2022-11-20T10:58:49;97233.81;;;3.20;81.97
49040;BME280;36811;49.732;13.402;2022-11-20T11:01:20;97226.41;;;2.99;81.99
49040;BME280;36811;49.732;13.402;2022-11-20T11:03:50;97228.88;;;3.12;82.45
49040;BME280;36811;49.732;13.402;2022-11-20T11:06:32;97224.72;;;3.04;82.49
49040;BME280;36811;49.732;13.402;2022-11-20T11:09:04;97220.09;;;3.18;82.83
49040;BME280;36811;49.732;13.402;2022-11-20T11:11:34;97210.44;;;3.30;82.54
49040;BME280;36811;49.732;13.402;2022-11-20T11:14:14;97216.84;;;3.04;81.89
49040;BME280;36811;49.732;13.402;2022-11-20T11:16:50;97208.47;;;2.96;83.77
49040;BME280;36811;49.732;13.402;2022-11-20T11:19:16;97210.63;;;2.99;83.14
49040;BME280;36811;49.732;13.402;2022-11-20T11:21:47;97211.53;;;2.93;84.03
49040;BME280;36811;49.732;13.402;2022-11-20T11:24:23;97202.63;;;2.94;83.56
49040;BME280;36811;49.732;13.402;2022-11-20T11:26:57;97212.06;;;2.83;83.70
49040;BME280;36811;49.732;13.402;2022-11-20T11:29:24;97194.03;;;2.87;83.68
49040;BME280;36811;49.732;13.402;2022-11-20T11:32:04;97188.84;;;2.98;83.96
49040;BME280;36811;49.732;13.402;2022-11-20T11:34:31;97186.88;;;3.24;83.57
49040;BME280;36811;49.732;13.402;2022-11-20T11:36:58;97175.41;;;3.59;83.06
49040;BME280;36811;49.732;13.402;2022-11-20T11:39:27;97176.63;;;3.87;83.14
49040;BME280;36811;49.732;13.402;2022-11-20T11:41:54;97164.94;;;4.06;82.69
49040;BME280;36811;49.732;13.402;2022-11-20T11:44:33;97164.63;;;4.02;81.74
49040;BME280;36811;49.732;13.402;2022-11-20T11:47:24;97171.31;;;3.63;82.61
49040;BME280;36811;49.732;13.402;2022-11-20T11:50:16;97173.06;;;3.28;82.54
49040;BME280;36811;49.732;13.402;2022-11-20T11:53:16;97170.06;;;3.13;83.64
49040;BME280;36811;49.732;13.402;2022-11-20T11:56:03;97172.16;;;2.93;83.57
49040;BME280;36811;49.732;13.402;2022-11-20T11:58:46;97164.44;;;2.80;84.28
49040;BME280;36811;49.732;13.402;2022-11-20T12:01:29;97167.72;;;2.75;84.97
49040;BME280;36811;49.732;13.402;2022-11-20T12:06:50;97155.91;;;2.66;85.38
49040;BME280;36811;49.732;13.402;2022-11-20T12:09:18;97157.00;;;2.58;86.22
49040;BME280;36811;49.732;13.402;2022-11-20T12:12:08;97150.50;;;2.61;88.09
49040;BME280;36811;49.732;13.402;2022-11-20T12:14:41;97158.25;;;2.56;87.85
49040;BME280;36811;49.732;13.402;2022-11-20T12:17:12;97157.75;;;2.47;88.56
49040;BME280;36811;49.732;13.402;2022-11-20T12:19:39;97147.44;;;2.46;88.70
49040;BME280;36811;49.732;13.402;2022-11-20T12:22:37;97154.22;;;2.53;89.38
49040;BME280;36811;49.732;13.402;2022-11-20T12:25:17;97148.03;;;2.66;89.78
49040;BME280;36811;49.732;13.402;2022-11-20T12:30:52;97138.88;;;2.87;88.65
49040;BME280;36811;49.732;13.402;2022-11-20T12:33:27;97141.38;;;2.82;88.72
49040;BME280;36811;49.732;13.402;2022-11-20T12:36:07;97142.31;;;2.87;88.02
49040;BME280;36811;49.732;13.402;2022-11-20T12:39:13;97148.94;;;2.90;88.33
49040;BME280;36811;49.732;13.402;2022-11-20T12:51:31;97143.13;;;2.88;90.20
49040;BME280;36811;49.732;13.402;2022-11-20T12:56:50;97130.19;;;3.16;89.75
49040;BME280;36811;49.732;13.402;2022-11-20T13:00:01;97113.31;;;3.24;90.26
49040;BME280;36811;49.732;13.402;2022-11-20T13:05:24;97108.19;;;3.29;89.07
49040;BME280;36811;49.732;13.402;2022-11-20T13:07:53;97104.88;;;3.45;89.15
49040;BME280;36811;49.732;13.402;2022-11-20T13:10:45;97101.81;;;3.48;88.80
49040;BME280;36811;49.732;13.402;2022-11-20T13:18:52;97090.00;;;3.27;89.16
49040;BME280;36811;49.732;13.402;2022-11-20T13:21:22;97087.38;;;3.27;89.44
49040;BME280;36811;49.732;13.402;2022-11-20T13:23:48;97077.53;;;3.22;89.72
49040;BME280;36811;49.732;13.402;2022-11-20T13:26:20;97082.34;;;3.37;89.95
49040;BME280;36811;49.732;13.402;2022-11-20T13:28:59;97086.16;;;3.41;90.19
49040;BME280;36811;49.732;13.402;2022-11-20T13:31:31;97086.50;;;3.56;90.56
49040;BME280;36811;49.732;13.402;2022-11-20T13:33:58;97084.66;;;3.57;89.41
49040;BME280;36811;49.732;13.402;2022-11-20T13:36:27;97077.13;;;3.60;89.38
49040;BME280;36811;49.732;13.402;2022-11-20T13:38:55;97076.75;;;3.57;89.42
49040;BME280;36811;49.732;13.402;2022-11-20T13:44:13;97078.25;;;3.64;89.65
49040;BME280;36811;49.732;13.402;2022-11-20T13:46:43;97074.59;;;3.65;89.76
49040;BME280;36811;49.732;13.402;2022-11-20T13:49:59;97070.25;;;3.59;89.98
49040;BME280;36811;49.732;13.402;2022-11-20T13:52:30;97076.88;;;3.62;90.16
49040;BME280;36811;49.732;13.402;2022-11-20T13:55:36;97086.25;;;3.69;90.34
49040;BME280;36811;49.732;13.402;2022-11-20T14:00:57;97085.59;;;3.97;90.47
49040;BME280;36811;49.732;13.402;2022-11-20T14:03:25;97090.47;;;4.05;90.27
49040;BME280;36811;49.732;13.402;2022-11-20T14:06:01;97088.16;;;4.20;90.20
49040;BME280;36811;49.732;13.402;2022-11-20T14:08:37;97088.63;;;4.29;89.09
49040;BME280;36811;49.732;13.402;2022-11-20T14:11:15;97090.13;;;4.25;89.00
49040;BME280;36811;49.732;13.402;2022-11-20T14:13:56;97096.78;;;4.04;88.45